createdAt,value
2023-04-23T00:00:24.389Z,9.24
2023-04-23T00:05:28.127Z,9.12
2023-04-23T00:10:30.088Z,9.08
2023-04-23T00:15:32.478Z,9.07
2023-04-23T00:20:35.443Z,9.05
2023-04-23T00:25:37.158Z,9.06
2023-04-23T00:30:39.249Z,9.10
2023-04-23T00:35:41.256Z,9.14
2023-04-23T00:40:43.536Z,9.12
2023-04-23T00:45:45.451Z,9.06
2023-04-23T00:50:47.261Z,8.99
2023-04-23T00:55:49.080Z,8.89
2023-04-23T01:00:52.540Z,8.80
2023-04-23T01:05:54.512Z,8.67
2023-04-23T01:10:56.348Z,8.56
2023-04-23T01:15:58.522Z,8.42
2023-04-23T01:21:00.651Z,8.21
2023-04-23T01:26:02.773Z,7.99
2023-04-23T01:31:04.612Z,7.81
2023-04-23T01:36:07.466Z,7.69
2023-04-23T01:41:09.241Z,7.65
2023-04-23T01:46:11.628Z,7.65
2023-04-23T01:51:13.425Z,7.64
2023-04-23T01:56:16.524Z,7.61
2023-04-23T02:01:18.305Z,7.61
2023-04-23T02:06:20.089Z,7.66
2023-04-23T02:11:21.959Z,7.73
2023-04-23T02:16:24.660Z,7.79
2023-04-23T02:21:27.457Z,7.84
2023-04-23T02:26:29.723Z,7.93
2023-04-23T02:31:31.652Z,8.00
2023-04-23T02:36:34.019Z,8.06
2023-04-23T02:41:36.172Z,8.09
2023-04-23T02:46:38.373Z,8.10
2023-04-23T02:51:40.135Z,8.06
2023-04-23T02:56:42.132Z,8.00
2023-04-23T03:01:44.069Z,7.94
2023-04-23T03:06:46.398Z,7.88
2023-04-23T03:11:49.442Z,7.82
2023-04-23T03:16:51.331Z,7.83
2023-04-23T03:21:53.632Z,7.83
2023-04-23T03:26:55.550Z,7.83
2023-04-23T03:31:57.353Z,7.80
2023-04-23T03:36:59.136Z,7.74
2023-04-23T03:42:01.997Z,7.70
2023-04-23T03:47:05.103Z,7.68
2023-04-23T03:52:07.079Z,7.70
2023-04-23T03:57:12.243Z,7.72
2023-04-23T04:02:25.937Z,7.73
2023-04-23T04:07:28.704Z,7.74
2023-04-23T04:12:31.300Z,7.83
2023-04-23T04:17:32.976Z,8.02
2023-04-23T04:22:34.739Z,8.22
2023-04-23T04:27:37.629Z,8.37
2023-04-23T04:32:40.591Z,8.58
2023-04-23T04:37:44.029Z,8.86
2023-04-23T04:42:46.539Z,9.11
2023-04-23T04:47:48.322Z,9.38
2023-04-23T04:52:50.059Z,9.72
2023-04-23T04:57:51.730Z,10.00
2023-04-23T05:02:53.953Z,10.82
2023-04-23T05:07:59.142Z,12.07
2023-04-23T05:13:01.154Z,13.82
2023-04-23T05:18:06.372Z,15.61
2023-04-23T05:23:08.261Z,17.02
2023-04-23T05:28:09.948Z,18.22
2023-04-23T05:33:12.505Z,19.43
2023-04-23T05:38:14.177Z,20.70
2023-04-23T05:43:16.372Z,21.83
2023-04-23T05:48:18.053Z,22.87
2023-04-23T05:53:19.909Z,23.61
2023-04-23T05:58:22.243Z,24.19
2023-04-23T06:03:24.481Z,24.99
2023-04-23T06:08:26.302Z,25.65
2023-04-23T06:13:30.773Z,26.13
2023-04-23T06:18:32.447Z,26.33
2023-04-23T06:23:34.395Z,26.54
2023-04-23T06:28:36.141Z,26.94
2023-04-23T06:33:57.033Z,27.40
2023-04-23T06:38:59.292Z,28.11
2023-04-23T06:44:01.208Z,28.69
2023-04-23T06:49:07.207Z,28.86
2023-04-23T06:54:08.920Z,28.94
2023-04-23T06:59:10.578Z,28.93
2023-04-23T07:04:19.599Z,29.10
2023-04-23T07:09:21.478Z,29.30
2023-04-23T07:14:25.259Z,29.22
2023-04-23T07:19:27.613Z,29.51
2023-04-23T07:24:29.486Z,29.88
2023-04-23T07:29:31.408Z,30.13
2023-04-23T07:34:34.153Z,30.18
2023-04-23T07:39:36.607Z,30.11
2023-04-23T07:44:38.665Z,30.12
2023-04-23T07:49:40.616Z,30.27
2023-04-23T07:54:42.995Z,30.19
2023-04-23T07:59:44.729Z,30.05
2023-04-23T08:04:47.055Z,29.86
2023-04-23T08:09:49.185Z,30.03
2023-04-23T08:14:50.931Z,30.15
2023-04-23T08:19:53.759Z,29.99
2023-04-23T08:24:55.645Z,29.53
2023-04-23T08:29:57.242Z,29.27
2023-04-23T08:34:59.498Z,29.27
2023-04-23T08:40:01.579Z,29.15
2023-04-23T08:45:04.919Z,29.06
2023-04-23T08:50:08.508Z,29.11
2023-04-23T08:55:10.748Z,29.24
2023-04-23T09:00:14.659Z,29.29
2023-04-23T09:05:16.506Z,29.17
2023-04-23T09:10:18.766Z,28.80
2023-04-23T09:15:20.742Z,28.57
2023-04-23T09:20:22.755Z,28.52
2023-04-23T09:25:24.807Z,28.46
2023-04-23T09:30:27.600Z,27.99
2023-04-23T09:35:29.730Z,27.83
2023-04-23T09:40:31.664Z,28.06
2023-04-23T09:45:35.286Z,27.59
2023-04-23T09:50:39.488Z,26.79
2023-04-23T09:55:43.013Z,26.34
2023-04-23T10:00:44.882Z,25.82
2023-04-23T10:06:00.209Z,25.61
2023-04-23T10:11:19.601Z,25.33
2023-04-23T10:16:26.801Z,24.88
2023-04-23T10:21:50.131Z,24.73
2023-04-23T10:26:59.822Z,24.43
2023-04-23T10:32:06.299Z,24.23
2023-04-23T10:37:08.778Z,24.28
2023-04-23T10:42:13.571Z,24.31
2023-04-23T10:47:16.840Z,24.33
2023-04-23T10:52:21.694Z,24.57
2023-04-23T10:57:24.625Z,24.76
2023-04-23T11:02:42.673Z,24.89
2023-04-23T11:08:11.083Z,24.83
2023-04-23T11:13:22.541Z,24.64
2023-04-23T11:18:24.277Z,24.50
2023-04-23T11:23:34.288Z,24.60
2023-04-23T11:28:38.373Z,24.51
2023-04-23T11:33:40.060Z,24.25
2023-04-23T11:38:42.188Z,24.20
2023-04-23T11:43:43.843Z,24.34
2023-04-23T11:48:45.661Z,24.31
2023-04-23T11:53:48.572Z,24.13
2023-04-23T11:59:00.204Z,23.88
2023-04-23T12:04:10.204Z,23.64
2023-04-23T12:09:14.181Z,23.57
2023-04-23T12:14:17.851Z,23.46
2023-04-23T12:19:26.282Z,23.24
2023-04-23T12:24:30.975Z,23.18
2023-04-23T12:29:32.600Z,23.12
2023-04-23T12:34:34.376Z,23.06
2023-04-23T12:39:36.570Z,23.29
2023-04-23T12:44:39.223Z,23.54
2023-04-23T12:49:42.272Z,23.79
2023-04-23T12:54:45.008Z,23.84
2023-04-23T12:59:47.018Z,23.90
2023-04-23T13:04:48.668Z,23.95
2023-04-23T13:09:50.912Z,23.89
2023-04-23T13:14:52.762Z,23.70
2023-04-23T13:19:55.698Z,23.60
2023-04-23T13:24:59.377Z,23.64
2023-04-23T13:30:01.328Z,23.65
2023-04-23T13:35:05.094Z,23.59
2023-04-23T13:40:07.912Z,23.42
2023-04-23T13:45:10.188Z,23.33
2023-04-23T13:50:12.493Z,23.36
2023-04-23T13:55:14.288Z,23.40
2023-04-23T14:00:16.660Z,23.30
2023-04-23T14:05:18.413Z,23.07
2023-04-23T14:10:20.641Z,22.80
2023-04-23T14:15:22.798Z,22.59
2023-04-23T14:20:24.497Z,22.43
2023-04-23T14:25:41.106Z,22.28
2023-04-23T14:30:42.732Z,22.14
2023-04-23T14:35:44.478Z,22.17
2023-04-23T14:40:46.652Z,22.31
2023-04-23T14:45:48.443Z,22.46
2023-04-23T14:50:50.947Z,22.49
2023-04-23T14:55:52.683Z,22.48
2023-04-23T15:00:54.413Z,22.47
2023-04-23T15:05:56.176Z,22.44
2023-04-23T15:10:59.774Z,22.29
2023-04-23T15:16:03.651Z,22.07
2023-04-23T15:21:06.859Z,21.92
2023-04-23T15:26:09.018Z,21.87
2023-04-23T15:31:11.206Z,21.86
2023-04-23T15:36:13.799Z,21.83
2023-04-23T15:41:15.733Z,21.79
2023-04-23T15:46:17.613Z,21.71
2023-04-23T15:51:19.734Z,21.62
2023-04-23T15:56:22.003Z,21.52
2023-04-23T16:01:25.581Z,21.42
2023-04-23T16:06:29.040Z,21.36
2023-04-23T16:11:31.109Z,21.31
2023-04-23T16:16:33.015Z,21.25
2023-04-23T16:21:34.862Z,21.21
2023-04-23T16:26:37.508Z,21.16
2023-04-23T16:31:39.878Z,21.13
2023-04-23T16:36:41.641Z,21.09
2023-04-23T16:41:43.412Z,20.96
2023-04-23T16:46:45.270Z,20.79
2023-04-23T16:51:47.047Z,20.62
2023-04-23T16:56:48.613Z,20.45
2023-04-23T17:01:50.369Z,20.26
2023-04-23T17:06:52.098Z,20.08
2023-04-23T17:11:54.074Z,19.87
2023-04-23T17:16:56.434Z,19.66
2023-04-23T17:21:58.695Z,19.47
2023-04-23T17:27:01.639Z,19.27
2023-04-23T17:32:04.159Z,19.07
2023-04-23T17:37:05.987Z,18.86
2023-04-23T17:42:07.972Z,18.63
2023-04-23T17:47:11.024Z,18.42
2023-04-23T17:52:12.831Z,18.22
2023-04-23T17:57:14.689Z,18.03
2023-04-23T18:02:16.907Z,17.86
2023-04-23T18:07:19.401Z,17.70
2023-04-23T18:12:21.848Z,17.50
2023-04-23T18:17:24.847Z,17.22
2023-04-23T18:22:26.565Z,16.94
2023-04-23T18:27:28.456Z,16.72
2023-04-23T18:38:09.428Z,16.39
2023-04-23T18:43:11.571Z,16.21
2023-04-23T18:48:35.357Z,16.05
2023-04-23T18:53:38.950Z,15.85
2023-04-23T18:58:40.872Z,15.66
2023-04-23T19:03:42.997Z,15.48
2023-04-23T19:08:45.664Z,15.29
2023-04-23T19:13:47.703Z,15.11
2023-04-23T19:18:49.414Z,14.93
2023-04-23T19:23:52.325Z,14.73
2023-04-23T19:28:54.077Z,14.51
2023-04-23T19:33:57.193Z,14.29
2023-04-23T19:38:58.853Z,14.10
2023-04-23T19:44:00.916Z,13.91
2023-04-23T19:49:02.619Z,13.75
2023-04-23T19:54:05.437Z,13.59
2023-04-23T19:59:09.591Z,13.42
2023-04-23T20:04:11.495Z,13.29
2023-04-23T20:09:21.017Z,13.17
2023-04-23T20:14:22.964Z,13.05
2023-04-23T20:19:27.571Z,12.94
2023-04-23T20:24:29.301Z,12.83
2023-04-23T20:29:31.252Z,12.71
2023-04-23T20:34:33.167Z,12.65
2023-04-23T20:39:38.299Z,12.63
2023-04-23T20:44:41.852Z,12.65
2023-04-23T20:49:43.808Z,12.67
2023-04-23T20:54:45.757Z,12.66
2023-04-23T20:59:47.486Z,12.59
2023-04-23T21:04:49.139Z,12.46
2023-04-23T21:09:51.449Z,12.33
2023-04-23T21:14:56.937Z,12.26
2023-04-23T21:19:58.582Z,12.23
2023-04-23T21:25:00.290Z,12.17
2023-04-23T21:30:08.830Z,11.94
2023-04-23T21:35:12.998Z,11.65
2023-04-23T21:40:15.373Z,11.46
2023-04-23T21:45:18.186Z,11.26
2023-04-23T21:50:39.862Z,11.07
2023-04-23T21:55:41.579Z,10.99
2023-04-23T22:00:44.802Z,11.05
2023-04-23T22:05:47.107Z,11.13
2023-04-23T22:10:49.021Z,11.18
2023-04-23T22:15:51.053Z,11.22
2023-04-23T22:20:53.076Z,11.26
2023-04-23T22:25:54.816Z,11.25
2023-04-23T22:30:56.722Z,11.25
2023-04-23T22:35:59.607Z,11.27
2023-04-23T22:41:02.078Z,11.28
2023-04-23T22:46:04.116Z,11.20
2023-04-23T22:51:06.981Z,11.06
2023-04-23T22:56:08.858Z,10.95
2023-04-23T23:01:11.126Z,10.91
2023-04-23T23:06:12.798Z,10.94
2023-04-23T23:11:15.763Z,11.01
2023-04-23T23:16:17.539Z,11.09
2023-04-23T23:21:19.557Z,11.11
2023-04-23T23:26:21.466Z,11.10
2023-04-23T23:31:26.048Z,11.09
2023-04-23T23:36:27.901Z,11.12
2023-04-23T23:41:49.623Z,11.18
2023-04-23T23:46:52.631Z,11.23
2023-04-23T23:52:00.043Z,11.26
2023-04-23T23:57:01.907Z,11.26
